sensor_id;sensor_type;location;lat;lon;timestamp;P1;durP1;ratioP1;P2;durP2;ratioP2
79229;SDS011;68663;49.122;17.544;2024-02-21T00:01:17;4.68;;;2.47;;
79229;SDS011;68663;49.122;17.544;2024-02-21T00:03:43;2.40;;;1.92;;
79229;SDS011;68663;49.122;17.544;2024-02-21T00:06:09;2.45;;;2.00;;
79229;SDS011;68663;49.122;17.544;2024-02-21T00:08:35;3.72;;;2.40;;
79229;SDS011;68663;49.122;17.544;2024-02-21T00:11:00;3.40;;;2.40;;
79229;SDS011;68663;49.122;17.544;2024-02-21T00:13:25;2.97;;;2.20;;
79229;SDS011;68663;49.122;17.544;2024-02-21T00:15:51;2.95;;;2.33;;
79229;SDS011;68663;49.122;17.544;2024-02-21T00:18:16;3.17;;;2.40;;
79229;SDS011;68663;49.122;17.544;2024-02-21T00:20:41;5.00;;;2.20;;
79229;SDS011;68663;49.122;17.544;2024-02-21T00:23:07;3.97;;;2.30;;
79229;SDS011;68663;49.122;17.544;2024-02-21T00:25:32;3.50;;;2.30;;
79229;SDS011;68663;49.122;17.544;2024-02-21T00:27:57;3.40;;;2.43;;
79229;SDS011;68663;49.122;17.544;2024-02-21T00:30:23;3.33;;;2.10;;
79229;SDS011;68663;49.122;17.544;2024-02-21T00:32:48;3.20;;;2.27;;
79229;SDS011;68663;49.122;17.544;2024-02-21T00:35:14;3.97;;;2.55;;
79229;SDS011;68663;49.122;17.544;2024-02-21T00:37:39;3.95;;;2.08;;
79229;SDS011;68663;49.122;17.544;2024-02-21T00:40:05;2.67;;;2.05;;
79229;SDS011;68663;49.122;17.544;2024-02-21T00:42:31;2.35;;;1.85;;
79229;SDS011;68663;49.122;17.544;2024-02-21T00:44:56;3.07;;;2.00;;
79229;SDS011;68663;49.122;17.544;2024-02-21T00:47:23;2.90;;;2.00;;
79229;SDS011;68663;49.122;17.544;2024-02-21T00:49:48;3.03;;;2.30;;
79229;SDS011;68663;49.122;17.544;2024-02-21T00:52:13;3.53;;;2.23;;
79229;SDS011;68663;49.122;17.544;2024-02-21T00:54:39;3.40;;;2.17;;
79229;SDS011;68663;49.122;17.544;2024-02-21T00:57:04;3.20;;;2.20;;
79229;SDS011;68663;49.122;17.544;2024-02-21T00:59:29;3.33;;;2.40;;
79229;SDS011;68663;49.122;17.544;2024-02-21T01:01:55;2.40;;;1.80;;
79229;SDS011;68663;49.122;17.544;2024-02-21T01:04:20;3.40;;;2.37;;
79229;SDS011;68663;49.122;17.544;2024-02-21T01:06:46;2.93;;;2.20;;
79229;SDS011;68663;49.122;17.544;2024-02-21T01:09:11;3.10;;;2.17;;
79229;SDS011;68663;49.122;17.544;2024-02-21T01:11:36;3.15;;;2.20;;
79229;SDS011;68663;49.122;17.544;2024-02-21T01:14:02;2.67;;;2.03;;
79229;SDS011;68663;49.122;17.544;2024-02-21T01:16:27;3.50;;;2.22;;
79229;SDS011;68663;49.122;17.544;2024-02-21T01:18:53;3.15;;;2.10;;
79229;SDS011;68663;49.122;17.544;2024-02-21T01:21:18;3.80;;;2.33;;
79229;SDS011;68663;49.122;17.544;2024-02-21T01:23:43;3.50;;;2.20;;
79229;SDS011;68663;49.122;17.544;2024-02-21T01:26:09;3.42;;;2.35;;
79229;SDS011;68663;49.122;17.544;2024-02-21T01:28:38;3.03;;;2.22;;
79229;SDS011;68663;49.122;17.544;2024-02-21T01:31:03;2.63;;;2.05;;
79229;SDS011;68663;49.122;17.544;2024-02-21T01:33:29;3.43;;;2.33;;
79229;SDS011;68663;49.122;17.544;2024-02-21T01:35:59;2.95;;;2.10;;
79229;SDS011;68663;49.122;17.544;2024-02-21T01:38:25;3.65;;;2.20;;
79229;SDS011;68663;49.122;17.544;2024-02-21T01:40:51;2.47;;;1.92;;
79229;SDS011;68663;49.122;17.544;2024-02-21T01:43:17;2.73;;;2.00;;
79229;SDS011;68663;49.122;17.544;2024-02-21T01:45:48;2.72;;;2.00;;
79229;SDS011;68663;49.122;17.544;2024-02-21T01:48:16;3.17;;;2.17;;
79229;SDS011;68663;49.122;17.544;2024-02-21T01:50:43;3.35;;;2.22;;
79229;SDS011;68663;49.122;17.544;2024-02-21T01:53:23;3.30;;;2.10;;
79229;SDS011;68663;49.122;17.544;2024-02-21T01:55:55;4.70;;;2.17;;
79229;SDS011;68663;49.122;17.544;2024-02-21T01:58:21;3.22;;;2.08;;
79229;SDS011;68663;49.122;17.544;2024-02-21T02:00:47;2.55;;;1.92;;
79229;SDS011;68663;49.122;17.544;2024-02-21T02:03:13;2.70;;;2.00;;
79229;SDS011;68663;49.122;17.544;2024-02-21T02:05:45;3.08;;;2.22;;
79229;SDS011;68663;49.122;17.544;2024-02-21T02:08:14;3.33;;;2.05;;
79229;SDS011;68663;49.122;17.544;2024-02-21T02:10:41;3.22;;;2.28;;
79229;SDS011;68663;49.122;17.544;2024-02-21T02:13:06;3.88;;;2.22;;
79229;SDS011;68663;49.122;17.544;2024-02-21T02:15:38;3.45;;;2.25;;
79229;SDS011;68663;49.122;17.544;2024-02-21T02:18:04;2.30;;;1.95;;
79229;SDS011;68663;49.122;17.544;2024-02-21T02:20:30;3.33;;;2.30;;
79229;SDS011;68663;49.122;17.544;2024-02-21T02:22:55;2.90;;;2.00;;
79229;SDS011;68663;49.122;17.544;2024-02-21T02:25:21;3.75;;;1.98;;
79229;SDS011;68663;49.122;17.544;2024-02-21T02:27:47;2.95;;;2.25;;
79229;SDS011;68663;49.122;17.544;2024-02-21T02:30:12;2.78;;;2.13;;
79229;SDS011;68663;49.122;17.544;2024-02-21T02:32:37;4.05;;;2.40;;
79229;SDS011;68663;49.122;17.544;2024-02-21T02:35:03;2.87;;;1.97;;
79229;SDS011;68663;49.122;17.544;2024-02-21T02:37:29;3.08;;;1.90;;
79229;SDS011;68663;49.122;17.544;2024-02-21T02:39:54;2.93;;;2.10;;
79229;SDS011;68663;49.122;17.544;2024-02-21T02:42:20;3.45;;;2.40;;
79229;SDS011;68663;49.122;17.544;2024-02-21T02:44:45;3.90;;;2.37;;
79229;SDS011;68663;49.122;17.544;2024-02-21T02:47:10;2.80;;;2.10;;
79229;SDS011;68663;49.122;17.544;2024-02-21T02:49:36;3.03;;;2.03;;
79229;SDS011;68663;49.122;17.544;2024-02-21T02:52:01;3.10;;;2.20;;
79229;SDS011;68663;49.122;17.544;2024-02-21T02:54:27;2.83;;;2.00;;
79229;SDS011;68663;49.122;17.544;2024-02-21T02:56:52;3.08;;;2.30;;
79229;SDS011;68663;49.122;17.544;2024-02-21T02:59:18;3.10;;;2.20;;
79229;SDS011;68663;49.122;17.544;2024-02-21T03:01:43;3.47;;;2.38;;
79229;SDS011;68663;49.122;17.544;2024-02-21T03:04:09;3.10;;;2.33;;
79229;SDS011;68663;49.122;17.544;2024-02-21T03:06:34;2.80;;;1.90;;
79229;SDS011;68663;49.122;17.544;2024-02-21T03:09:00;3.50;;;2.40;;
79229;SDS011;68663;49.122;17.544;2024-02-21T03:11:25;3.08;;;2.00;;
79229;SDS011;68663;49.122;17.544;2024-02-21T03:13:54;2.40;;;1.70;;
79229;SDS011;68663;49.122;17.544;2024-02-21T03:16:21;2.88;;;2.10;;
79229;SDS011;68663;49.122;17.544;2024-02-21T03:18:47;2.47;;;1.88;;
79229;SDS011;68663;49.122;17.544;2024-02-21T03:21:12;2.60;;;2.10;;
79229;SDS011;68663;49.122;17.544;2024-02-21T03:23:38;3.30;;;2.13;;
79229;SDS011;68663;49.122;17.544;2024-02-21T03:26:03;2.60;;;1.92;;
79229;SDS011;68663;49.122;17.544;2024-02-21T03:28:28;2.90;;;2.20;;
79229;SDS011;68663;49.122;17.544;2024-02-21T03:30:54;3.03;;;1.95;;
79229;SDS011;68663;49.122;17.544;2024-02-21T03:33:20;2.83;;;2.00;;
79229;SDS011;68663;49.122;17.544;2024-02-21T03:35:46;2.75;;;2.28;;
79229;SDS011;68663;49.122;17.544;2024-02-21T03:38:11;3.00;;;2.20;;
79229;SDS011;68663;49.122;17.544;2024-02-21T03:40:36;2.83;;;2.00;;
79229;SDS011;68663;49.122;17.544;2024-02-21T03:43:02;3.03;;;2.03;;
79229;SDS011;68663;49.122;17.544;2024-02-21T03:45:27;3.17;;;2.17;;
79229;SDS011;68663;49.122;17.544;2024-02-21T03:47:52;2.33;;;1.90;;
79229;SDS011;68663;49.122;17.544;2024-02-21T03:50:18;2.95;;;2.08;;
79229;SDS011;68663;49.122;17.544;2024-02-21T03:52:43;3.15;;;2.20;;
79229;SDS011;68663;49.122;17.544;2024-02-21T03:55:09;2.47;;;1.70;;
79229;SDS011;68663;49.122;17.544;2024-02-21T03:57:34;2.60;;;2.03;;
79229;SDS011;68663;49.122;17.544;2024-02-21T03:59:59;2.65;;;1.92;;
79229;SDS011;68663;49.122;17.544;2024-02-21T04:02:25;2.50;;;1.60;;
79229;SDS011;68663;49.122;17.544;2024-02-21T04:04:50;2.33;;;1.70;;
79229;SDS011;68663;49.122;17.544;2024-02-21T04:07:16;3.30;;;2.33;;
79229;SDS011;68663;49.122;17.544;2024-02-21T04:09:41;2.65;;;2.08;;
79229;SDS011;68663;49.122;17.544;2024-02-21T04:12:07;2.83;;;2.05;;
79229;SDS011;68663;49.122;17.544;2024-02-21T04:14:34;2.72;;;1.90;;
79229;SDS011;68663;49.122;17.544;2024-02-21T04:16:59;2.72;;;1.92;;
79229;SDS011;68663;49.122;17.544;2024-02-21T04:19:25;2.38;;;2.10;;
79229;SDS011;68663;49.122;17.544;2024-02-21T04:21:50;2.87;;;2.07;;
79229;SDS011;68663;49.122;17.544;2024-02-21T04:24:16;3.40;;;2.17;;
79229;SDS011;68663;49.122;17.544;2024-02-21T04:26:41;3.33;;;2.10;;
79229;SDS011;68663;49.122;17.544;2024-02-21T04:29:07;2.72;;;1.90;;
79229;SDS011;68663;49.122;17.544;2024-02-21T04:31:32;3.13;;;1.92;;
79229;SDS011;68663;49.122;17.544;2024-02-21T04:33:58;2.60;;;1.98;;
79229;SDS011;68663;49.122;17.544;2024-02-21T04:36:23;2.53;;;1.90;;
79229;SDS011;68663;49.122;17.544;2024-02-21T04:38:49;3.13;;;2.13;;
79229;SDS011;68663;49.122;17.544;2024-02-21T04:41:15;2.70;;;2.00;;
79229;SDS011;68663;49.122;17.544;2024-02-21T04:43:40;2.50;;;1.98;;
79229;SDS011;68663;49.122;17.544;2024-02-21T04:46:06;2.95;;;2.10;;
79229;SDS011;68663;49.122;17.544;2024-02-21T04:48:31;2.67;;;2.00;;
79229;SDS011;68663;49.122;17.544;2024-02-21T04:50:57;3.03;;;2.10;;
79229;SDS011;68663;49.122;17.544;2024-02-21T04:53:22;2.70;;;1.97;;
79229;SDS011;68663;49.122;17.544;2024-02-21T04:55:47;2.70;;;1.80;;
79229;SDS011;68663;49.122;17.544;2024-02-21T04:58:13;3.10;;;2.35;;
79229;SDS011;68663;49.122;17.544;2024-02-21T05:00:38;2.50;;;1.80;;
79229;SDS011;68663;49.122;17.544;2024-02-21T05:03:03;3.50;;;2.50;;
79229;SDS011;68663;49.122;17.544;2024-02-21T05:05:29;2.95;;;2.08;;
79229;SDS011;68663;49.122;17.544;2024-02-21T05:07:54;2.88;;;1.95;;
79229;SDS011;68663;49.122;17.544;2024-02-21T05:10:20;3.00;;;1.98;;
79229;SDS011;68663;49.122;17.544;2024-02-21T05:12:45;2.35;;;1.88;;
79229;SDS011;68663;49.122;17.544;2024-02-21T05:15:11;3.15;;;2.00;;
79229;SDS011;68663;49.122;17.544;2024-02-21T05:17:36;3.07;;;2.13;;
79229;SDS011;68663;49.122;17.544;2024-02-21T05:20:02;2.47;;;1.97;;
79229;SDS011;68663;49.122;17.544;2024-02-21T05:22:28;3.38;;;1.95;;
79229;SDS011;68663;49.122;17.544;2024-02-21T05:24:53;2.90;;;1.83;;
79229;SDS011;68663;49.122;17.544;2024-02-21T05:27:18;2.97;;;2.10;;
79229;SDS011;68663;49.122;17.544;2024-02-21T05:29:44;2.83;;;2.10;;
79229;SDS011;68663;49.122;17.544;2024-02-21T05:32:09;3.70;;;2.20;;
79229;SDS011;68663;49.122;17.544;2024-02-21T05:34:34;2.75;;;2.08;;
79229;SDS011;68663;49.122;17.544;2024-02-21T05:37:00;2.70;;;2.20;;
79229;SDS011;68663;49.122;17.544;2024-02-21T05:39:26;2.70;;;2.15;;
79229;SDS011;68663;49.122;17.544;2024-02-21T05:41:51;2.85;;;1.88;;
79229;SDS011;68663;49.122;17.544;2024-02-21T05:44:17;2.35;;;1.80;;
79229;SDS011;68663;49.122;17.544;2024-02-21T05:46:43;2.38;;;1.70;;
79229;SDS011;68663;49.122;17.544;2024-02-21T05:49:08;2.88;;;1.90;;
79229;SDS011;68663;49.122;17.544;2024-02-21T05:51:34;2.58;;;1.88;;
79229;SDS011;68663;49.122;17.544;2024-02-21T05:54:00;2.40;;;1.90;;
79229;SDS011;68663;49.122;17.544;2024-02-21T05:56:25;2.95;;;2.00;;
79229;SDS011;68663;49.122;17.544;2024-02-21T05:58:50;2.50;;;1.90;;
79229;SDS011;68663;49.122;17.544;2024-02-21T06:01:16;1.85;;;1.67;;
79229;SDS011;68663;49.122;17.544;2024-02-21T06:03:42;2.55;;;1.80;;
79229;SDS011;68663;49.122;17.544;2024-02-21T06:06:08;2.67;;;2.28;;
79229;SDS011;68663;49.122;17.544;2024-02-21T06:08:33;2.95;;;1.90;;
79229;SDS011;68663;49.122;17.544;2024-02-21T06:10:59;2.45;;;1.77;;
79229;SDS011;68663;49.122;17.544;2024-02-21T06:13:24;2.75;;;2.13;;
79229;SDS011;68663;49.122;17.544;2024-02-21T06:15:50;2.53;;;2.00;;
79229;SDS011;68663;49.122;17.544;2024-02-21T06:18:18;2.85;;;2.10;;
79229;SDS011;68663;49.122;17.544;2024-02-21T06:20:44;2.40;;;1.80;;
79229;SDS011;68663;49.122;17.544;2024-02-21T06:23:11;2.65;;;1.70;;
79229;SDS011;68663;49.122;17.544;2024-02-21T06:25:36;2.88;;;2.00;;
79229;SDS011;68663;49.122;17.544;2024-02-21T06:28:02;2.67;;;1.90;;
79229;SDS011;68663;49.122;17.544;2024-02-21T06:30:27;3.08;;;2.10;;
79229;SDS011;68663;49.122;17.544;2024-02-21T06:32:53;3.28;;;1.92;;
79229;SDS011;68663;49.122;17.544;2024-02-21T06:35:20;3.22;;;1.80;;
79229;SDS011;68663;49.122;17.544;2024-02-21T06:37:46;6.70;;;2.08;;
79229;SDS011;68663;49.122;17.544;2024-02-21T06:40:15;3.30;;;2.20;;
79229;SDS011;68663;49.122;17.544;2024-02-21T06:42:41;3.95;;;2.22;;
79229;SDS011;68663;49.122;17.544;2024-02-21T06:45:07;3.65;;;1.95;;
79229;SDS011;68663;49.122;17.544;2024-02-21T06:47:32;3.22;;;2.20;;
79229;SDS011;68663;49.122;17.544;2024-02-21T06:49:58;6.43;;;2.20;;
79229;SDS011;68663;49.122;17.544;2024-02-21T06:52:23;3.05;;;1.80;;
79229;SDS011;68663;49.122;17.544;2024-02-21T06:54:49;2.85;;;1.90;;
79229;SDS011;68663;49.122;17.544;2024-02-21T06:57:15;4.78;;;1.88;;
79229;SDS011;68663;49.122;17.544;2024-02-21T06:59:41;2.00;;;1.55;;
79229;SDS011;68663;49.122;17.544;2024-02-21T07:02:07;2.30;;;1.60;;
79229;SDS011;68663;49.122;17.544;2024-02-21T07:04:32;2.22;;;1.60;;
79229;SDS011;68663;49.122;17.544;2024-02-21T07:06:58;2.97;;;1.97;;
79229;SDS011;68663;49.122;17.544;2024-02-21T07:09:23;3.35;;;2.10;;
79229;SDS011;68663;49.122;17.544;2024-02-21T07:11:48;3.07;;;2.10;;
79229;SDS011;68663;49.122;17.544;2024-02-21T07:14:14;3.83;;;2.10;;
79229;SDS011;68663;49.122;17.544;2024-02-21T07:16:40;2.90;;;1.90;;
79229;SDS011;68663;49.122;17.544;2024-02-21T07:19:05;3.37;;;1.93;;
79229;SDS011;68663;49.122;17.544;2024-02-21T07:21:31;3.38;;;1.90;;
79229;SDS011;68663;49.122;17.544;2024-02-21T07:23:56;4.00;;;1.80;;
79229;SDS011;68663;49.122;17.544;2024-02-21T07:26:22;2.65;;;1.70;;
79229;SDS011;68663;49.122;17.544;2024-02-21T07:28:47;4.50;;;2.10;;
79229;SDS011;68663;49.122;17.544;2024-02-21T07:31:12;2.73;;;1.70;;
79229;SDS011;68663;49.122;17.544;2024-02-21T07:33:38;3.47;;;2.43;;
79229;SDS011;68663;49.122;17.544;2024-02-21T07:36:07;4.43;;;1.80;;
79229;SDS011;68663;49.122;17.544;2024-02-21T07:38:33;6.63;;;2.22;;
79229;SDS011;68663;49.122;17.544;2024-02-21T07:40:59;5.30;;;1.95;;
79229;SDS011;68663;49.122;17.544;2024-02-21T07:43:24;3.70;;;1.83;;
79229;SDS011;68663;49.122;17.544;2024-02-21T07:45:51;2.83;;;1.75;;
79229;SDS011;68663;49.122;17.544;2024-02-21T07:48:18;3.13;;;2.05;;
79229;SDS011;68663;49.122;17.544;2024-02-21T07:50:44;2.80;;;1.90;;
79229;SDS011;68663;49.122;17.544;2024-02-21T07:53:09;5.05;;;2.60;;
79229;SDS011;68663;49.122;17.544;2024-02-21T07:55:35;3.70;;;2.08;;
79229;SDS011;68663;49.122;17.544;2024-02-21T07:58:00;6.57;;;2.20;;
79229;SDS011;68663;49.122;17.544;2024-02-21T08:00:26;4.18;;;2.13;;
79229;SDS011;68663;49.122;17.544;2024-02-21T08:02:51;6.10;;;2.28;;
79229;SDS011;68663;49.122;17.544;2024-02-21T08:05:17;4.68;;;2.08;;
79229;SDS011;68663;49.122;17.544;2024-02-21T08:07:42;3.83;;;2.25;;
79229;SDS011;68663;49.122;17.544;2024-02-21T08:10:07;5.00;;;2.60;;
79229;SDS011;68663;49.122;17.544;2024-02-21T08:12:33;4.70;;;2.30;;
79229;SDS011;68663;49.122;17.544;2024-02-21T08:14:59;7.32;;;2.92;;
79229;SDS011;68663;49.122;17.544;2024-02-21T08:17:24;4.57;;;2.40;;
79229;SDS011;68663;49.122;17.544;2024-02-21T08:19:50;5.87;;;2.57;;
79229;SDS011;68663;49.122;17.544;2024-02-21T08:22:15;8.73;;;2.13;;
79229;SDS011;68663;49.122;17.544;2024-02-21T08:24:41;5.18;;;2.72;;
79229;SDS011;68663;49.122;17.544;2024-02-21T08:27:07;5.93;;;2.33;;
79229;SDS011;68663;49.122;17.544;2024-02-21T08:29:32;4.85;;;2.50;;
79229;SDS011;68663;49.122;17.544;2024-02-21T08:31:57;4.93;;;2.50;;
79229;SDS011;68663;49.122;17.544;2024-02-21T08:34:23;6.73;;;2.20;;
79229;SDS011;68663;49.122;17.544;2024-02-21T08:36:48;4.83;;;2.40;;
79229;SDS011;68663;49.122;17.544;2024-02-21T08:39:13;10.63;;;3.30;;
79229;SDS011;68663;49.122;17.544;2024-02-21T08:41:41;7.60;;;2.85;;
79229;SDS011;68663;49.122;17.544;2024-02-21T08:44:07;6.45;;;2.60;;
79229;SDS011;68663;49.122;17.544;2024-02-21T08:46:33;6.43;;;2.63;;
79229;SDS011;68663;49.122;17.544;2024-02-21T08:48:58;5.97;;;2.50;;
79229;SDS011;68663;49.122;17.544;2024-02-21T08:51:24;12.73;;;2.60;;
79229;SDS011;68663;49.122;17.544;2024-02-21T08:53:49;7.45;;;2.50;;
79229;SDS011;68663;49.122;17.544;2024-02-21T08:56:15;5.53;;;2.95;;
79229;SDS011;68663;49.122;17.544;2024-02-21T08:58:41;10.00;;;2.88;;
79229;SDS011;68663;49.122;17.544;2024-02-21T09:01:07;7.70;;;3.20;;
79229;SDS011;68663;49.122;17.544;2024-02-21T09:03:38;6.30;;;2.42;;
79229;SDS011;68663;49.122;17.544;2024-02-21T09:06:05;14.15;;;2.63;;
79229;SDS011;68663;49.122;17.544;2024-02-21T09:08:31;7.70;;;2.63;;
79229;SDS011;68663;49.122;17.544;2024-02-21T09:10:56;13.38;;;3.10;;
79229;SDS011;68663;49.122;17.544;2024-02-21T09:13:22;17.73;;;2.73;;
79229;SDS011;68663;49.122;17.544;2024-02-21T09:15:48;8.00;;;2.50;;
79229;SDS011;68663;49.122;17.544;2024-02-21T09:18:14;8.18;;;2.78;;
79229;SDS011;68663;49.122;17.544;2024-02-21T09:20:41;12.07;;;2.78;;
79229;SDS011;68663;49.122;17.544;2024-02-21T09:23:06;11.00;;;2.88;;
79229;SDS011;68663;49.122;17.544;2024-02-21T09:25:32;12.07;;;3.37;;
79229;SDS011;68663;49.122;17.544;2024-02-21T09:27:57;10.13;;;2.97;;
79229;SDS011;68663;49.122;17.544;2024-02-21T09:30:23;7.03;;;2.72;;
79229;SDS011;68663;49.122;17.544;2024-02-21T09:32:49;11.10;;;2.72;;
79229;SDS011;68663;49.122;17.544;2024-02-21T09:35:15;6.50;;;2.75;;
79229;SDS011;68663;49.122;17.544;2024-02-21T09:37:40;7.07;;;2.30;;
79229;SDS011;68663;49.122;17.544;2024-02-21T09:40:06;7.10;;;2.90;;
79229;SDS011;68663;49.122;17.544;2024-02-21T09:42:39;5.60;;;2.38;;
79229;SDS011;68663;49.122;17.544;2024-02-21T09:45:13;6.30;;;2.55;;
79229;SDS011;68663;49.122;17.544;2024-02-21T09:50:44;7.70;;;2.78;;
79229;SDS011;68663;49.122;17.544;2024-02-21T09:53:11;7.90;;;2.63;;
79229;SDS011;68663;49.122;17.544;2024-02-21T09:55:38;5.07;;;2.92;;
79229;SDS011;68663;49.122;17.544;2024-02-21T09:58:06;4.78;;;2.50;;
79229;SDS011;68663;49.122;17.544;2024-02-21T10:00:32;6.72;;;2.92;;
79229;SDS011;68663;49.122;17.544;2024-02-21T10:02:58;4.28;;;2.30;;
79229;SDS011;68663;49.122;17.544;2024-02-21T10:05:24;5.00;;;2.55;;
79229;SDS011;68663;49.122;17.544;2024-02-21T10:07:50;7.28;;;2.40;;
79229;SDS011;68663;49.122;17.544;2024-02-21T10:10:16;4.60;;;2.35;;
79229;SDS011;68663;49.122;17.544;2024-02-21T10:12:48;4.65;;;2.53;;
79229;SDS011;68663;49.122;17.544;2024-02-21T10:15:19;7.70;;;3.30;;
79229;SDS011;68663;49.122;17.544;2024-02-21T10:17:49;6.45;;;3.03;;
79229;SDS011;68663;49.122;17.544;2024-02-21T10:20:22;13.48;;;4.05;;
79229;SDS011;68663;49.122;17.544;2024-02-21T10:22:48;8.53;;;3.90;;
79229;SDS011;68663;49.122;17.544;2024-02-21T10:25:14;12.65;;;3.92;;
79229;SDS011;68663;49.122;17.544;2024-02-21T10:27:39;8.80;;;3.95;;
79229;SDS011;68663;49.122;17.544;2024-02-21T10:30:07;11.13;;;4.25;;
79229;SDS011;68663;49.122;17.544;2024-02-21T10:32:37;8.70;;;4.85;;
79229;SDS011;68663;49.122;17.544;2024-02-21T10:35:14;8.75;;;4.45;;
79229;SDS011;68663;49.122;17.544;2024-02-21T10:37:39;8.67;;;3.87;;
79229;SDS011;68663;49.122;17.544;2024-02-21T10:40:05;8.47;;;4.37;;
79229;SDS011;68663;49.122;17.544;2024-02-21T10:42:31;10.48;;;3.72;;
79229;SDS011;68663;49.122;17.544;2024-02-21T10:45:00;9.55;;;3.28;;
79229;SDS011;68663;49.122;17.544;2024-02-21T10:47:29;5.45;;;3.42;;
79229;SDS011;68663;49.122;17.544;2024-02-21T10:50:02;7.28;;;3.60;;
79229;SDS011;68663;49.122;17.544;2024-02-21T10:55:24;10.35;;;3.55;;
79229;SDS011;68663;49.122;17.544;2024-02-21T10:57:54;6.60;;;3.67;;
79229;SDS011;68663;49.122;17.544;2024-02-21T11:00:22;8.63;;;3.20;;
79229;SDS011;68663;49.122;17.544;2024-02-21T11:02:52;10.05;;;4.22;;
79229;SDS011;68663;49.122;17.544;2024-02-21T11:05:17;7.28;;;3.53;;
79229;SDS011;68663;49.122;17.544;2024-02-21T11:10:25;7.00;;;3.33;;
79229;SDS011;68663;49.122;17.544;2024-02-21T11:13:07;8.70;;;3.30;;
79229;SDS011;68663;49.122;17.544;2024-02-21T11:15:33;5.60;;;3.15;;
79229;SDS011;68663;49.122;17.544;2024-02-21T11:17:58;10.45;;;3.35;;
79229;SDS011;68663;49.122;17.544;2024-02-21T11:20:34;6.90;;;3.50;;
79229;SDS011;68663;49.122;17.544;2024-02-21T11:23:00;7.72;;;2.95;;
79229;SDS011;68663;49.122;17.544;2024-02-21T11:25:26;4.20;;;2.95;;
79229;SDS011;68663;49.122;17.544;2024-02-21T11:27:58;8.90;;;3.30;;
79229;SDS011;68663;49.122;17.544;2024-02-21T11:30:32;8.50;;;3.10;;
79229;SDS011;68663;49.122;17.544;2024-02-21T11:33:02;6.95;;;2.83;;
79229;SDS011;68663;49.122;17.544;2024-02-21T11:35:33;5.93;;;2.95;;
79229;SDS011;68663;49.122;17.544;2024-02-21T11:38:09;6.40;;;3.13;;
79229;SDS011;68663;49.122;17.544;2024-02-21T11:40:38;7.55;;;3.28;;
79229;SDS011;68663;49.122;17.544;2024-02-21T11:43:05;5.20;;;2.55;;
79229;SDS011;68663;49.122;17.544;2024-02-21T11:45:30;5.68;;;2.80;;
79229;SDS011;68663;49.122;17.544;2024-02-21T11:47:57;6.18;;;2.80;;
79229;SDS011;68663;49.122;17.544;2024-02-21T11:50:25;5.38;;;2.65;;
79229;SDS011;68663;49.122;17.544;2024-02-21T11:52:51;5.53;;;3.13;;
79229;SDS011;68663;49.122;17.544;2024-02-21T11:55:19;5.45;;;2.47;;
79229;SDS011;68663;49.122;17.544;2024-02-21T11:57:45;6.50;;;2.70;;
79229;SDS011;68663;49.122;17.544;2024-02-21T12:00:13;6.40;;;2.88;;
79229;SDS011;68663;49.122;17.544;2024-02-21T12:02:43;7.20;;;2.78;;
79229;SDS011;68663;49.122;17.544;2024-02-21T12:05:10;11.93;;;4.15;;
79229;SDS011;68663;49.122;17.544;2024-02-21T12:07:36;34.90;;;8.57;;
79229;SDS011;68663;49.122;17.544;2024-02-21T12:10:06;51.83;;;11.82;;
79229;SDS011;68663;49.122;17.544;2024-02-21T12:12:35;53.13;;;12.75;;
79229;SDS011;68663;49.122;17.544;2024-02-21T12:15:04;52.38;;;13.65;;
79229;SDS011;68663;49.122;17.544;2024-02-21T12:17:32;46.70;;;13.43;;
79229;SDS011;68663;49.122;17.544;2024-02-21T12:20:00;40.95;;;13.25;;
79229;SDS011;68663;49.122;17.544;2024-02-21T12:22:29;38.05;;;12.10;;
79229;SDS011;68663;49.122;17.544;2024-02-21T12:24:57;34.15;;;11.00;;
79229;SDS011;68663;49.122;17.544;2024-02-21T12:27:23;39.85;;;11.38;;
79229;SDS011;68663;49.122;17.544;2024-02-21T12:29:48;32.63;;;10.98;;
79229;SDS011;68663;49.122;17.544;2024-02-21T12:32:14;35.10;;;11.30;;
79229;SDS011;68663;49.122;17.544;2024-02-21T12:34:39;34.20;;;11.35;;
79229;SDS011;68663;49.122;17.544;2024-02-21T12:37:05;33.20;;;10.50;;
79229;SDS011;68663;49.122;17.544;2024-02-21T12:39:30;34.22;;;10.80;;
79229;SDS011;68663;49.122;17.544;2024-02-21T12:41:56;27.08;;;9.25;;
79229;SDS011;68663;49.122;17.544;2024-02-21T12:44:22;30.10;;;10.75;;
79229;SDS011;68663;49.122;17.544;2024-02-21T12:46:47;32.67;;;10.63;;
79229;SDS011;68663;49.122;17.544;2024-02-21T12:49:17;27.58;;;11.05;;
79229;SDS011;68663;49.122;17.544;2024-02-21T12:51:43;28.25;;;9.57;;
79229;SDS011;68663;49.122;17.544;2024-02-21T12:54:08;29.40;;;10.38;;
79229;SDS011;68663;49.122;17.544;2024-02-21T12:56:36;33.35;;;10.80;;
79229;SDS011;68663;49.122;17.544;2024-02-21T12:59:01;28.85;;;10.55;;
79229;SDS011;68663;49.122;17.544;2024-02-21T13:01:27;28.60;;;9.80;;
79229;SDS011;68663;49.122;17.544;2024-02-21T13:03:53;24.92;;;8.63;;
79229;SDS011;68663;49.122;17.544;2024-02-21T13:06:19;29.30;;;10.23;;
79229;SDS011;68663;49.122;17.544;2024-02-21T13:08:44;24.42;;;9.50;;
79229;SDS011;68663;49.122;17.544;2024-02-21T13:11:11;26.23;;;9.77;;
79229;SDS011;68663;49.122;17.544;2024-02-21T13:13:37;26.35;;;9.80;;
79229;SDS011;68663;49.122;17.544;2024-02-21T13:16:03;20.58;;;9.25;;
79229;SDS011;68663;49.122;17.544;2024-02-21T13:18:29;26.95;;;8.40;;
79229;SDS011;68663;49.122;17.544;2024-02-21T13:20:54;26.57;;;8.53;;
79229;SDS011;68663;49.122;17.544;2024-02-21T13:23:19;26.83;;;9.13;;
79229;SDS011;68663;49.122;17.544;2024-02-21T13:25:46;21.00;;;8.25;;
79229;SDS011;68663;49.122;17.544;2024-02-21T13:28:12;22.67;;;9.25;;
79229;SDS011;68663;49.122;17.544;2024-02-21T13:30:38;20.38;;;8.18;;
79229;SDS011;68663;49.122;17.544;2024-02-21T13:33:05;24.98;;;8.82;;
79229;SDS011;68663;49.122;17.544;2024-02-21T13:35:31;20.85;;;8.05;;
79229;SDS011;68663;49.122;17.544;2024-02-21T13:37:57;18.27;;;7.53;;
79229;SDS011;68663;49.122;17.544;2024-02-21T13:40:22;22.70;;;8.23;;
79229;SDS011;68663;49.122;17.544;2024-02-21T13:42:48;24.75;;;7.65;;
79229;SDS011;68663;49.122;17.544;2024-02-21T13:45:14;22.35;;;7.68;;
79229;SDS011;68663;49.122;17.544;2024-02-21T13:47:40;16.45;;;7.45;;
79229;SDS011;68663;49.122;17.544;2024-02-21T13:50:06;22.75;;;8.85;;
79229;SDS011;68663;49.122;17.544;2024-02-21T13:52:34;21.40;;;7.32;;
79229;SDS011;68663;49.122;17.544;2024-02-21T13:55:00;17.92;;;7.55;;
79229;SDS011;68663;49.122;17.544;2024-02-21T13:57:26;19.70;;;7.80;;
79229;SDS011;68663;49.122;17.544;2024-02-21T13:59:51;18.47;;;6.97;;
79229;SDS011;68663;49.122;17.544;2024-02-21T14:02:18;19.87;;;8.07;;
79229;SDS011;68663;49.122;17.544;2024-02-21T14:04:43;18.20;;;7.82;;
79229;SDS011;68663;49.122;17.544;2024-02-21T14:07:09;16.70;;;6.23;;
79229;SDS011;68663;49.122;17.544;2024-02-21T14:09:34;17.73;;;7.50;;
79229;SDS011;68663;49.122;17.544;2024-02-21T14:12:00;17.95;;;7.50;;
79229;SDS011;68663;49.122;17.544;2024-02-21T14:14:25;16.77;;;7.57;;
79229;SDS011;68663;49.122;17.544;2024-02-21T14:16:51;14.63;;;7.22;;
79229;SDS011;68663;49.122;17.544;2024-02-21T14:19:16;14.57;;;6.72;;
79229;SDS011;68663;49.122;17.544;2024-02-21T14:21:43;19.15;;;6.75;;
79229;SDS011;68663;49.122;17.544;2024-02-21T14:24:10;14.07;;;6.72;;
79229;SDS011;68663;49.122;17.544;2024-02-21T14:26:37;18.63;;;7.55;;
79229;SDS011;68663;49.122;17.544;2024-02-21T14:29:02;16.02;;;6.65;;
79229;SDS011;68663;49.122;17.544;2024-02-21T14:31:28;12.13;;;5.97;;
79229;SDS011;68663;49.122;17.544;2024-02-21T14:33:56;13.55;;;6.05;;